Kezdőlap
METAR-TAF:

METAR-TAF

Repülőterek :

Dusanbei nemzetközi repülőtér

Dusanbe, Tadzsikisztán

földrajzi szélesség: 38-33N, földrajzi hosszúság: 068-47E, magasság: 803 m

Jelenlegi meteorológiai megfigyelések

A jelentés 40 perccel ezelõtt készült, 03:00 UTC
Szélcsend
Hőmérséklet 27°C
Páratartalom 39%
Légköri nyomás 1011 hPa
Látótávolság: 7000 m
Szórványos felhőzet 2400 lábon

METAR: UTDD 150300Z 00000MPS 7000 SCT024 27/12 Q1011 R09/D NOSIG RMK QFE690/0920

Idő: 08:40 (03:40 UTC)

Előrejelzés

A jelentés 40 perccel ezelõtt készült, 03:00 UTC
Az előrejelzés 15-én 04 óra UTC és 15-én 16 óra UTC között érvényes
Különbözõ irányokból fújó szél 4 kt
Látótávolság: 5000 m
Kevés felhő 6000 lábon
Szórványos felhőzet 10000 lábon
Száraz légköri homály
15-én 05 óra UTC és 15-én 16 óra UTC között ideiglenes
Nyugati szél 12 kt

TAF: UTDD 150300Z 1504/1516 VRB02MPS 5000 HZ FEW060 SCT100 TEMPO 1505/1516 27006MPS

Meteorológiai megfigyelések és előrejelzések több, mint 4000 repülőtéren (METAR és TAF jelentéseket).

A térképen piros és sárga pontok jelzik az elérhető meteorológiai állomásokat.

Mozgassa az egeret a pont fölött, hogy megjelenjen az állomás neve.

Azután kattintson az időjárási megfigyelések és előrejelzések megtekintéséhez.

A térkép megváltoztatása: kattintson a fekete keresztel jelölt zöld gombra ráközelítéshez, a vonallal jelölt zöld gombra távolításhoz, vagy a zöld nyilakra a szomszédos térképek eléréséhez.


METAR-TAF: